createdAt,value
2017-08-20T00:00:10.339Z,0
2017-08-20T00:01:10.339Z,0
2017-08-20T00:02:10.382Z,0
2017-08-20T00:03:10.406Z,0
2017-08-20T00:04:10.442Z,0
2017-08-20T00:05:25.048Z,0
2017-08-20T00:06:10.465Z,0
2017-08-20T00:07:25.156Z,0
2017-08-20T00:08:09.597Z,0
2017-08-20T00:09:10.233Z,0
2017-08-20T00:10:10.582Z,0
2017-08-20T00:11:10.576Z,0
2017-08-20T00:12:10.312Z,0
2017-08-20T00:13:10.637Z,0
2017-08-20T00:15:10.384Z,0
2017-08-20T00:16:10.410Z,0
2017-08-20T00:17:10.436Z,0
2017-08-20T00:18:10.730Z,0
2017-08-20T00:19:10.786Z,0
2017-08-20T00:20:10.820Z,0
2017-08-20T00:21:25.433Z,0
2017-08-20T00:22:10.847Z,0
2017-08-20T00:23:10.558Z,0
2017-08-20T00:24:10.880Z,0
2017-08-20T00:25:10.913Z,0
2017-08-20T00:26:10.636Z,0
2017-08-20T00:27:10.972Z,0
2017-08-20T00:28:10.998Z,0
2017-08-20T00:29:25.602Z,0
2017-08-20T00:30:25.639Z,0
2017-08-20T00:31:11.067Z,0
2017-08-20T00:32:11.066Z,0
2017-08-20T00:33:11.108Z,0
2017-08-20T00:34:11.130Z,0
2017-08-20T00:35:25.741Z,0
2017-08-20T00:36:25.766Z,0
2017-08-20T00:37:11.176Z,0
2017-08-20T00:38:11.233Z,0
2017-08-20T00:39:11.242Z,0
2017-08-20T00:40:10.963Z,0
2017-08-20T00:41:11.264Z,0
2017-08-20T00:42:11.315Z,0
2017-08-20T00:43:11.337Z,0
2017-08-20T00:44:11.361Z,0
2017-08-20T00:46:11.091Z,0
2017-08-20T00:47:11.130Z,0
2017-08-20T00:48:11.126Z,0
2017-08-20T00:49:11.454Z,0
2017-08-20T00:51:11.518Z,0
2017-08-20T00:52:11.545Z,0
2017-08-20T00:53:11.552Z,0
2017-08-20T00:54:11.595Z,0
2017-08-20T00:55:11.584Z,0
2017-08-20T00:56:11.655Z,0
2017-08-20T00:57:11.642Z,0
2017-08-20T00:58:26.283Z,0
2017-08-20T00:59:11.706Z,0
2017-08-20T01:00:11.740Z,0
2017-08-20T01:01:26.341Z,0
2017-08-20T01:02:11.773Z,0
2017-08-20T01:03:11.799Z,0
2017-08-20T01:04:11.837Z,0
2017-08-20T01:05:11.824Z,0
2017-08-20T01:06:11.879Z,0
2017-08-20T01:07:11.876Z,0
2017-08-20T01:08:26.212Z,0
2017-08-20T01:09:11.624Z,0
2017-08-20T01:10:11.639Z,0
2017-08-20T01:11:11.724Z,0
2017-08-20T01:12:11.990Z,0
2017-08-20T01:13:11.732Z,0
2017-08-20T01:14:26.326Z,0
2017-08-20T01:15:12.134Z,0
2017-08-20T01:16:12.105Z,0
2017-08-20T01:17:12.125Z,0
2017-08-20T01:18:11.527Z,0
2017-08-20T01:19:11.853Z,0
2017-08-20T01:20:11.907Z,0
2017-08-20T01:21:12.197Z,0
2017-08-20T01:22:12.226Z,0
2017-08-20T01:23:12.260Z,0
2017-08-20T01:24:26.885Z,0
2017-08-20T01:25:12.315Z,0
2017-08-20T01:26:12.317Z,0
2017-08-20T01:27:26.646Z,0
2017-08-20T01:28:12.067Z,0
2017-08-20T01:29:12.385Z,0
2017-08-20T01:30:12.426Z,0
2017-08-20T01:31:12.478Z,0
2017-08-20T01:32:12.463Z,0
2017-08-20T01:33:12.172Z,0
2017-08-20T01:34:12.198Z,0
2017-08-20T01:35:12.538Z,0
2017-08-20T01:36:12.289Z,0
2017-08-20T01:37:12.278Z,0
2017-08-20T01:38:12.288Z,0
2017-08-20T01:39:12.637Z,0
2017-08-20T01:40:27.248Z,0
2017-08-20T01:41:12.667Z,0
2017-08-20T01:42:12.690Z,0
2017-08-20T01:43:12.720Z,0
2017-08-20T01:44:12.745Z,0
2017-08-20T01:45:12.778Z,0
2017-08-20T01:46:12.852Z,0
2017-08-20T01:47:12.803Z,0
2017-08-20T01:48:12.836Z,0
2017-08-20T01:49:12.865Z,0
2017-08-20T01:50:27.176Z,0
2017-08-20T01:51:12.585Z,0
2017-08-20T01:52:12.928Z,0
2017-08-20T01:53:12.945Z,0
2017-08-20T01:54:12.691Z,0
2017-08-20T01:55:12.975Z,0
2017-08-20T01:56:27.306Z,0
2017-08-20T01:57:12.726Z,0
2017-08-20T01:58:27.659Z,0
2017-08-20T01:59:13.078Z,0
2017-08-20T02:00:13.141Z,0
2017-08-20T02:01:13.119Z,0
2017-08-20T02:02:27.732Z,0
2017-08-20T02:03:13.180Z,0
2017-08-20T02:04:13.209Z,0
2017-08-20T02:05:13.230Z,0
2017-08-20T02:06:13.242Z,0
2017-08-20T02:07:13.313Z,0
2017-08-20T02:08:13.279Z,0
2017-08-20T02:09:13.009Z,0
2017-08-20T02:10:13.339Z,0
2017-08-20T02:11:27.954Z,0
2017-08-20T02:12:27.991Z,0
2017-08-20T02:13:13.394Z,0
2017-08-20T02:14:13.425Z,0
2017-08-20T02:15:28.051Z,0
2017-08-20T02:16:13.166Z,0
2017-08-20T02:17:13.492Z,0
2017-08-20T02:19:13.551Z,0
2017-08-20T02:21:13.586Z,0
2017-08-20T02:22:13.609Z,0
2017-08-20T02:23:13.602Z,0
2017-08-20T02:24:13.348Z,0
2017-08-20T02:25:13.674Z,0
2017-08-20T02:26:13.714Z,0
2017-08-20T02:27:13.724Z,0
2017-08-20T02:28:13.442Z,0
2017-08-20T02:29:13.761Z,0
2017-08-20T02:30:28.389Z,0
2017-08-20T02:31:13.508Z,0
2017-08-20T02:32:13.209Z,0
2017-08-20T02:33:13.549Z,0
2017-08-20T02:34:13.893Z,0
2017-08-20T02:35:13.912Z,0
2017-08-20T02:36:13.915Z,0
2017-08-20T02:37:13.966Z,0
2017-08-20T02:38:13.645Z,0
2017-08-20T02:39:13.382Z,0
2017-08-20T02:40:13.715Z,0
2017-08-20T02:41:13.738Z,0
2017-08-20T02:42:13.758Z,0
2017-08-20T02:43:28.680Z,0
2017-08-20T02:44:14.103Z,0
2017-08-20T02:45:13.812Z,0
2017-08-20T02:46:14.161Z,0
2017-08-20T02:47:14.175Z,0
2017-08-20T02:48:14.191Z,0
2017-08-20T02:49:14.229Z,0
2017-08-20T02:51:14.285Z,0
2017-08-20T02:52:14.292Z,0
2017-08-20T02:53:13.984Z,0
2017-08-20T02:54:14.328Z,0
2017-08-20T02:55:14.034Z,0
2017-08-20T02:56:14.378Z,0
2017-08-20T02:57:14.403Z,0
2017-08-20T02:58:14.436Z,0
2017-08-20T02:59:28.736Z,0
2017-08-20T03:00:14.168Z,0
2017-08-20T03:01:14.475Z,0
2017-08-20T03:02:29.126Z,0
2017-08-20T03:03:14.529Z,0
2017-08-20T03:04:13.944Z,0
2017-08-20T03:05:14.560Z,0
2017-08-20T03:06:29.207Z,0
2017-08-20T03:07:14.620Z,0
2017-08-20T03:08:14.653Z,0
2017-08-20T03:09:14.662Z,0
2017-08-20T03:10:14.702Z,0
2017-08-20T03:11:14.701Z,0
2017-08-20T03:12:14.732Z,0
2017-08-20T03:13:14.446Z,0
2017-08-20T03:14:14.804Z,0
2017-08-20T03:15:29.400Z,0
2017-08-20T03:16:14.827Z,0
2017-08-20T03:17:14.845Z,0
2017-08-20T03:18:29.483Z,0
2017-08-20T03:19:29.491Z,0
2017-08-20T03:20:14.609Z,0
2017-08-20T03:21:14.932Z,4
2017-08-20T03:22:14.648Z,4
2017-08-20T03:23:14.980Z,4
2017-08-20T03:24:15.002Z,0
2017-08-20T03:25:15.033Z,4
2017-08-20T03:26:15.073Z,4
2017-08-20T03:27:14.772Z,8
2017-08-20T03:28:15.099Z,4
2017-08-20T03:29:14.821Z,8
2017-08-20T03:30:15.159Z,8
2017-08-20T03:31:29.772Z,8
2017-08-20T03:32:15.184Z,12
2017-08-20T03:33:15.210Z,16
2017-08-20T03:35:15.229Z,20
2017-08-20T03:36:15.283Z,24
2017-08-20T03:37:15.302Z,24
2017-08-20T03:38:15.025Z,28
2017-08-20T03:39:15.335Z,32
2017-08-20T03:40:29.971Z,36
2017-08-20T03:41:29.985Z,44
2017-08-20T03:42:15.409Z,48
2017-08-20T03:43:15.431Z,56
2017-08-20T03:44:15.439Z,64
2017-08-20T03:45:15.467Z,72
2017-08-20T03:46:29.794Z,80
2017-08-20T03:47:15.510Z,88
2017-08-20T03:48:30.189Z,100
2017-08-20T03:49:15.593Z,104
2017-08-20T03:50:15.582Z,112
2017-08-20T03:51:15.605Z,124
2017-08-20T03:52:30.220Z,140
2017-08-20T03:53:15.663Z,148
2017-08-20T03:54:15.657Z,160
2017-08-20T03:55:15.088Z,176
2017-08-20T03:56:15.765Z,184
2017-08-20T03:58:15.432Z,216
2017-08-20T03:59:15.786Z,236
2017-08-20T04:00:15.817Z,256
2017-08-20T04:01:15.830Z,276
2017-08-20T04:02:15.560Z,308
2017-08-20T04:03:15.907Z,344
2017-08-20T04:04:15.914Z,384
2017-08-20T04:05:15.916Z,424
2017-08-20T04:06:15.948Z,476
2017-08-20T04:08:15.997Z,576
2017-08-20T04:10:16.041Z,676
2017-08-20T04:11:16.062Z,728
2017-08-20T04:12:16.074Z,784
2017-08-20T04:13:16.098Z,848
2017-08-20T04:14:16.124Z,920
2017-08-20T04:15:16.129Z,984
2017-08-20T04:16:16.154Z,1048
2017-08-20T04:17:16.194Z,1132
2017-08-20T04:18:30.820Z,1252
2017-08-20T04:19:16.248Z,1320
2017-08-20T04:21:16.293Z,1476
2017-08-20T04:22:16.284Z,1536
2017-08-20T04:23:16.339Z,1620
2017-08-20T04:24:16.343Z,1712
2017-08-20T04:26:16.400Z,1880
2017-08-20T04:27:16.405Z,1948
2017-08-20T04:28:16.114Z,2016
2017-08-20T04:29:16.460Z,2080
2017-08-20T04:30:16.479Z,2156
2017-08-20T04:31:16.488Z,2224
2017-08-20T04:32:31.125Z,2284
2017-08-20T04:33:16.551Z,2344
2017-08-20T04:34:30.852Z,2452
2017-08-20T04:35:16.596Z,2496
2017-08-20T04:36:16.301Z,2512
2017-08-20T04:37:16.623Z,2604
2017-08-20T04:38:16.656Z,2716
2017-08-20T04:39:16.670Z,2828
2017-08-20T04:40:16.710Z,2956
2017-08-20T04:41:16.717Z,3024
2017-08-20T04:42:16.772Z,3204
2017-08-20T04:43:16.760Z,3440
2017-08-20T04:44:16.797Z,3644
2017-08-20T04:45:16.814Z,3816
2017-08-20T04:46:16.820Z,3880
2017-08-20T04:47:16.558Z,3916
2017-08-20T04:48:16.885Z,3980
2017-08-20T04:49:16.598Z,4176
2017-08-20T04:50:31.513Z,4340
2017-08-20T04:51:31.564Z,4164
2017-08-20T04:52:16.655Z,4260
2017-08-20T04:53:16.989Z,5020
2017-08-20T04:54:17.021Z,7328
2017-08-20T04:56:16.751Z,11552
2017-08-20T04:57:17.074Z,12700
2017-08-20T04:58:17.119Z,11072
2017-08-20T04:59:17.124Z,10808
2017-08-20T05:00:17.160Z,14720
2017-08-20T05:01:17.162Z,12380
2017-08-20T05:02:17.266Z,6640
2017-08-20T05:03:17.214Z,4568
2017-08-20T05:04:17.251Z,4612
2017-08-20T05:05:31.863Z,4624
2017-08-20T05:06:46.497Z,4312
2017-08-20T05:07:31.295Z,4632
2017-08-20T05:08:17.337Z,4384
2017-08-20T05:09:17.355Z,4532
2017-08-20T05:10:17.066Z,4888
2017-08-20T05:11:17.112Z,5456
2017-08-20T05:12:17.430Z,6828
2017-08-20T05:13:17.175Z,4784
2017-08-20T05:14:16.847Z,4836
2017-08-20T05:15:17.199Z,5052
2017-08-20T05:16:32.128Z,5656
2017-08-20T05:17:17.240Z,6996
2017-08-20T05:18:17.253Z,9748
2017-08-20T05:20:17.329Z,7112
2017-08-20T05:21:32.259Z,8316
2017-08-20T05:22:17.675Z,15008
2017-08-20T05:23:17.369Z,18048
2017-08-20T05:24:32.296Z,23968
2017-08-20T05:25:17.734Z,27488
2017-08-20T05:26:17.448Z,27968
2017-08-20T05:27:32.392Z,27296
2017-08-20T05:28:17.481Z,24736
2017-08-20T05:29:17.850Z,25216
2017-08-20T05:30:17.851Z,33664
2017-08-20T05:31:17.870Z,33248
2017-08-20T05:32:17.910Z,29216
2017-08-20T05:33:17.909Z,31328
2017-08-20T05:34:17.950Z,35360
2017-08-20T05:35:17.972Z,29312
2017-08-20T05:36:18.009Z,25344
2017-08-20T05:37:18.039Z,31168
2017-08-20T05:38:18.345Z,26720
2017-08-20T05:39:18.077Z,49600
2017-08-20T05:40:18.097Z,49184
2017-08-20T05:41:18.146Z,45248
2017-08-20T05:42:18.172Z,44800
2017-08-20T05:43:17.873Z,43872
2017-08-20T05:44:18.202Z,45280
2017-08-20T05:45:18.234Z,42912
2017-08-20T05:46:18.251Z,44064
2017-08-20T05:47:18.290Z,44448
2017-08-20T05:48:18.310Z,49120
2017-08-20T05:49:18.362Z,47424
2017-08-20T05:50:18.063Z,49344
2017-08-20T05:51:18.093Z,50336
2017-08-20T05:52:18.421Z,47552
2017-08-20T05:53:33.053Z,49280
2017-08-20T05:54:32.780Z,57344
2017-08-20T05:55:18.504Z,61600
2017-08-20T05:56:33.144Z,60320
2017-08-20T05:57:18.561Z,60832
2017-08-20T05:58:18.610Z,58848
2017-08-20T05:59:18.322Z,57088
2017-08-20T06:00:18.666Z,52032
2017-08-20T06:01:18.665Z,53216
2017-08-20T06:02:18.418Z,56256
2017-08-20T06:03:18.748Z,57952
2017-08-20T06:04:18.771Z,55584
2017-08-20T06:05:33.092Z,61856
2017-08-20T06:06:18.847Z,63776
2017-08-20T06:07:33.475Z,70528
2017-08-20T06:08:18.904Z,68960
2017-08-20T06:09:33.228Z,68032
2017-08-20T06:10:33.552Z,68928
2017-08-20T06:11:18.981Z,63808
2017-08-20T06:12:19.041Z,57760
2017-08-20T06:13:19.070Z,52800
2017-08-20T06:14:18.793Z,55072
2017-08-20T06:15:33.719Z,57824
2017-08-20T06:16:33.760Z,57568
2017-08-20T06:17:19.180Z,61792
2017-08-20T06:18:19.231Z,65984
2017-08-20T06:19:19.257Z,72672
2017-08-20T06:20:19.303Z,72512
2017-08-20T06:21:19.326Z,73120
2017-08-20T06:22:19.357Z,73792
2017-08-20T06:23:19.085Z,73664
2017-08-20T06:24:19.103Z,72032
2017-08-20T06:25:34.062Z,74496
2017-08-20T06:26:19.191Z,76160
2017-08-20T06:28:19.272Z,73600
2017-08-20T06:29:19.597Z,72544
2017-08-20T06:30:19.625Z,73088
2017-08-20T06:31:19.671Z,73888
2017-08-20T06:32:19.697Z,72416
2017-08-20T06:33:19.426Z,72608
2017-08-20T06:34:34.045Z,73056
2017-08-20T06:35:19.775Z,72032
2017-08-20T06:36:19.837Z,70240
2017-08-20T06:37:19.904Z,67008
2017-08-20T06:38:19.894Z,62208
2017-08-20T06:39:19.945Z,61248
2017-08-20T06:40:19.961Z,65856
2017-08-20T06:41:34.617Z,71808
2017-08-20T06:42:20.050Z,70752
2017-08-20T06:43:19.775Z,68064
2017-08-20T06:44:20.115Z,72000
2017-08-20T06:45:20.131Z,76992
2017-08-20T06:46:20.181Z,74752
2017-08-20T06:47:20.226Z,68384
2017-08-20T06:49:20.280Z,67904
2017-08-20T06:50:20.335Z,68992
2017-08-20T06:51:34.645Z,69760
2017-08-20T06:52:20.389Z,69184
2017-08-20T06:53:20.432Z,67840
2017-08-20T06:54:20.478Z,70304
2017-08-20T06:55:35.098Z,73120
2017-08-20T06:56:35.137Z,74368
2017-08-20T06:57:20.569Z,74464
2017-08-20T06:58:20.635Z,71008
2017-08-20T06:59:35.248Z,68800
2017-08-20T07:00:20.687Z,70432
2017-08-20T07:01:20.715Z,71488
2017-08-20T07:02:20.733Z,68288
2017-08-20T07:03:20.492Z,67552
2017-08-20T07:04:20.823Z,69600
2017-08-20T07:05:20.874Z,69600
2017-08-20T07:06:20.919Z,67552
2017-08-20T07:07:20.626Z,68256
2017-08-20T07:08:20.643Z,71456
2017-08-20T07:09:20.976Z,71712
2017-08-20T07:10:21.050Z,73600
2017-08-20T07:11:20.774Z,72064
2017-08-20T07:12:21.125Z,66080
2017-08-20T07:13:21.131Z,65568
2017-08-20T07:14:21.177Z,69440
2017-08-20T07:15:35.811Z,67008
2017-08-20T07:16:35.856Z,65632
2017-08-20T07:17:21.306Z,66624
2017-08-20T07:18:35.927Z,66752
2017-08-20T07:19:21.360Z,66944
2017-08-20T07:20:21.415Z,65440
2017-08-20T07:21:21.426Z,66016
2017-08-20T07:22:21.172Z,66496
2017-08-20T07:25:21.567Z,67200
2017-08-20T07:26:21.601Z,65856
2017-08-20T07:27:21.650Z,65376
2017-08-20T07:28:35.979Z,65504
2017-08-20T07:29:21.729Z,65984
2017-08-20T07:30:21.751Z,65408
2017-08-20T07:31:21.494Z,64288
2017-08-20T07:32:36.110Z,64864
2017-08-20T07:33:21.864Z,63232
2017-08-20T07:34:21.915Z,62816
2017-08-20T07:35:21.627Z,65088
2017-08-20T07:36:21.681Z,64960
2017-08-20T07:37:22.010Z,63456
2017-08-20T07:38:21.754Z,62432
2017-08-20T07:39:21.805Z,62176
2017-08-20T07:40:21.830Z,64288
2017-08-20T07:41:21.847Z,62848
2017-08-20T07:42:22.207Z,61312
2017-08-20T07:43:21.610Z,61216
2017-08-20T07:44:36.579Z,62144
2017-08-20T07:45:22.328Z,62592
2017-08-20T07:46:22.348Z,62592
2017-08-20T07:47:22.062Z,63552
2017-08-20T07:48:22.415Z,60768
2017-08-20T07:49:22.468Z,59712
2017-08-20T07:50:22.179Z,61152
2017-08-20T07:51:22.211Z,62624
2017-08-20T07:52:22.563Z,59712
2017-08-20T07:53:22.287Z,60544
2017-08-20T07:54:22.624Z,63552
2017-08-20T07:55:22.397Z,62624
2017-08-20T07:56:22.700Z,57344
2017-08-20T07:57:22.749Z,58528
2017-08-20T07:58:22.776Z,59776
2017-08-20T07:59:22.835Z,58944
2017-08-20T08:00:37.464Z,60768
2017-08-20T08:01:22.902Z,60704
2017-08-20T08:02:22.913Z,58752
2017-08-20T08:03:37.544Z,58368
2017-08-20T08:04:37.603Z,60672
2017-08-20T08:05:22.714Z,59200
2017-08-20T08:06:23.071Z,58048
2017-08-20T08:07:22.798Z,57792
2017-08-20T08:08:23.151Z,11928
2017-08-20T08:09:22.859Z,58880
2017-08-20T08:10:37.815Z,55424
2017-08-20T08:11:23.254Z,56640
2017-08-20T08:12:23.287Z,58752
2017-08-20T08:13:23.322Z,57440
2017-08-20T08:14:23.358Z,55360
2017-08-20T08:15:23.392Z,56256
2017-08-20T08:16:38.044Z,57504
2017-08-20T08:17:23.520Z,53248
2017-08-20T08:18:23.507Z,55008
2017-08-20T08:19:23.216Z,54176
2017-08-20T08:20:38.176Z,55360
2017-08-20T08:21:38.221Z,53984
2017-08-20T08:22:23.323Z,49952
2017-08-20T08:23:38.295Z,52480
2017-08-20T08:24:23.729Z,41888
2017-08-20T08:25:23.763Z,15280
2017-08-20T08:26:38.374Z,48928
2017-08-20T08:27:23.840Z,50560
2017-08-20T08:28:23.846Z,11724
2017-08-20T08:29:23.904Z,10176
2017-08-20T08:30:23.938Z,29760
2017-08-20T08:31:38.572Z,15876
2017-08-20T08:32:23.998Z,21888
2017-08-20T08:33:24.047Z,25920
2017-08-20T08:35:24.113Z,12056
2017-08-20T08:36:24.134Z,23360
2017-08-20T08:37:24.150Z,23552
2017-08-20T08:38:24.224Z,23712
2017-08-20T08:39:38.818Z,23200
2017-08-20T08:40:24.333Z,23168
2017-08-20T08:41:24.305Z,22816
2017-08-20T08:42:24.337Z,22144
2017-08-20T08:43:38.984Z,22688
2017-08-20T08:46:24.166Z,21408
2017-08-20T08:47:24.521Z,21408
2017-08-20T08:48:24.534Z,19744
2017-08-20T08:49:24.272Z,21984
2017-08-20T08:50:24.625Z,19136
2017-08-20T08:51:24.661Z,22528
2017-08-20T08:52:24.384Z,22208
2017-08-20T08:53:24.412Z,10936
2017-08-20T08:54:24.433Z,21824
2017-08-20T08:55:24.807Z,22912
2017-08-20T08:56:24.506Z,12384
2017-08-20T08:57:24.882Z,12064
2017-08-20T08:58:24.905Z,21568
2017-08-20T08:59:24.651Z,22400
2017-08-20T09:00:24.646Z,22208
2017-08-20T09:01:24.991Z,21856
2017-08-20T09:02:25.029Z,20128
2017-08-20T09:03:39.650Z,21568
2017-08-20T09:04:25.126Z,21888
2017-08-20T09:05:25.120Z,22272
2017-08-20T09:06:25.179Z,12672
2017-08-20T09:07:25.195Z,10872
2017-08-20T09:08:25.218Z,10884
2017-08-20T09:09:25.279Z,20768
2017-08-20T09:11:25.006Z,20608
2017-08-20T09:12:39.704Z,20448
2017-08-20T09:13:25.086Z,20032
2017-08-20T09:14:25.440Z,10084
2017-08-20T09:15:40.058Z,8528
2017-08-20T09:16:25.201Z,7916
2017-08-20T09:17:25.521Z,7624
2017-08-20T09:18:25.562Z,7396
2017-08-20T09:19:40.193Z,6768
2017-08-20T09:21:25.670Z,16864
2017-08-20T09:22:25.386Z,17088
2017-08-20T09:23:25.742Z,17472
2017-08-20T09:25:25.774Z,18432
2017-08-20T09:26:25.525Z,18784
2017-08-20T09:27:25.871Z,18144
2017-08-20T09:28:25.593Z,18624
2017-08-20T09:29:25.906Z,18784
2017-08-20T09:30:25.967Z,19136
2017-08-20T09:31:25.964Z,19552
2017-08-20T09:32:26.036Z,19168
2017-08-20T09:33:26.047Z,18688
2017-08-20T09:34:26.086Z,18496
2017-08-20T09:35:40.732Z,18880
2017-08-20T09:36:26.132Z,18848
2017-08-20T09:37:26.178Z,19296
2017-08-20T09:39:25.928Z,18336
2017-08-20T09:40:40.890Z,15168
2017-08-20T09:42:26.033Z,10384
2017-08-20T09:43:26.072Z,10016
2017-08-20T09:44:26.093Z,9344
2017-08-20T09:45:40.731Z,7888
2017-08-20T09:47:26.202Z,6456
2017-08-20T09:48:26.204Z,6092
2017-08-20T09:49:26.564Z,5864
2017-08-20T09:50:26.614Z,5852
2017-08-20T09:51:40.944Z,6044
2017-08-20T09:52:26.661Z,5952
2017-08-20T09:53:26.361Z,5612
2017-08-20T09:54:41.329Z,5348
2017-08-20T09:55:26.741Z,5168
2017-08-20T09:57:26.194Z,5064
2017-08-20T09:58:41.444Z,5092
2017-08-20T09:59:26.879Z,5120
2017-08-20T10:00:26.594Z,5396
2017-08-20T10:01:41.536Z,5996
2017-08-20T10:02:26.655Z,8960
2017-08-20T10:03:41.284Z,14280
2017-08-20T10:04:41.622Z,7288
2017-08-20T10:05:27.053Z,11592
2017-08-20T10:06:41.669Z,7488
2017-08-20T10:07:27.092Z,9452
2017-08-20T10:09:26.840Z,15960
2017-08-20T10:10:27.207Z,16544
2017-08-20T10:11:27.215Z,17312
2017-08-20T10:12:26.945Z,17888
2017-08-20T10:13:27.273Z,18176
2017-08-20T10:14:41.604Z,18400
2017-08-20T10:15:26.725Z,18880
2017-08-20T10:16:26.779Z,18976
2017-08-20T10:17:27.074Z,18752
2017-08-20T10:18:27.428Z,11212
2017-08-20T10:19:27.469Z,9956
2017-08-20T10:20:27.188Z,9400
2017-08-20T10:21:27.506Z,8868
2017-08-20T10:22:42.157Z,7756
2017-08-20T10:23:27.573Z,7388
2017-08-20T10:24:27.605Z,7244
2017-08-20T10:25:27.327Z,7740
2017-08-20T10:26:27.685Z,13500
2017-08-20T10:27:42.354Z,16640
2017-08-20T10:28:27.734Z,9540
2017-08-20T10:29:27.756Z,9388
2017-08-20T10:30:27.775Z,9424
2017-08-20T10:31:42.422Z,10508
2017-08-20T10:32:27.872Z,12712
2017-08-20T10:33:27.559Z,11104
2017-08-20T10:34:27.911Z,10228
2017-08-20T10:35:27.629Z,10528
2017-08-20T10:36:27.648Z,11920
2017-08-20T10:37:28.027Z,10352
2017-08-20T10:38:42.607Z,10392
2017-08-20T10:39:28.054Z,10560
2017-08-20T10:40:28.070Z,10768
2017-08-20T10:41:42.405Z,11160
2017-08-20T10:42:28.138Z,11400
2017-08-20T10:43:27.872Z,11260
2017-08-20T10:44:28.207Z,11304
2017-08-20T10:45:28.215Z,11448
2017-08-20T10:46:28.267Z,11664
2017-08-20T10:47:27.971Z,11884
2017-08-20T10:48:28.303Z,11936
2017-08-20T10:49:28.031Z,11480
2017-08-20T10:50:27.770Z,11408
2017-08-20T10:51:27.779Z,11436
2017-08-20T10:52:28.129Z,11464
2017-08-20T10:53:28.153Z,11352
2017-08-20T10:54:42.778Z,16184
2017-08-20T10:55:28.203Z,14272
2017-08-20T10:56:28.239Z,13044
2017-08-20T10:57:43.173Z,13908
2017-08-20T10:58:28.615Z,14004
2017-08-20T10:59:42.927Z,12912
2017-08-20T11:00:28.676Z,10264
2017-08-20T11:01:28.382Z,10056
2017-08-20T11:04:28.749Z,15760
2017-08-20T11:05:28.808Z,11048
2017-08-20T11:06:43.429Z,10728
2017-08-20T11:07:28.254Z,10332
2017-08-20T11:08:28.894Z,9308
2017-08-20T11:09:28.931Z,7968
2017-08-20T11:10:43.548Z,7388
2017-08-20T11:11:43.261Z,7956
2017-08-20T11:12:43.626Z,8364
2017-08-20T11:13:28.405Z,8580
2017-08-20T11:14:29.066Z,8544
2017-08-20T11:15:29.101Z,8500
2017-08-20T11:16:29.131Z,8508
2017-08-20T11:17:28.822Z,8344
2017-08-20T11:18:28.862Z,8028
2017-08-20T11:19:28.885Z,7620
2017-08-20T11:20:28.935Z,7408
2017-08-20T11:21:29.273Z,7376
2017-08-20T11:22:28.972Z,7964
2017-08-20T11:23:43.923Z,8092
2017-08-20T11:24:29.354Z,8352
2017-08-20T11:26:44.020Z,8252
2017-08-20T11:27:29.107Z,8312
2017-08-20T11:28:29.443Z,8572
2017-08-20T11:29:29.171Z,8940
2017-08-20T11:30:29.763Z,8956
2017-08-20T11:31:29.552Z,10132
2017-08-20T11:33:29.601Z,9780
2017-08-20T11:34:29.622Z,9576
2017-08-20T11:35:29.339Z,9448
2017-08-20T11:36:44.272Z,9376
2017-08-20T11:37:29.408Z,9268
2017-08-20T11:39:29.758Z,8784
2017-08-20T11:40:29.487Z,8264
2017-08-20T11:41:44.426Z,8336
2017-08-20T11:42:29.543Z,8268
2017-08-20T11:43:29.707Z,8208
2017-08-20T11:44:29.929Z,8148
2017-08-20T11:45:29.943Z,7904
2017-08-20T11:46:29.954Z,7716
2017-08-20T11:47:44.587Z,7636
2017-08-20T11:48:29.699Z,7552
2017-08-20T11:49:30.055Z,7464
2017-08-20T11:50:30.050Z,7336
2017-08-20T11:52:30.137Z,7048
2017-08-20T11:53:30.159Z,6988
2017-08-20T11:54:30.186Z,6972
2017-08-20T11:55:29.598Z,6924
2017-08-20T11:56:29.927Z,6880
2017-08-20T11:57:29.971Z,6912
2017-08-20T11:58:29.982Z,6968
2017-08-20T11:59:30.307Z,6996
2017-08-20T12:01:30.384Z,7076
2017-08-20T12:02:30.412Z,7348
2017-08-20T12:04:30.158Z,7264
2017-08-20T12:05:30.474Z,7136
2017-08-20T12:06:30.527Z,7044
2017-08-20T12:07:30.530Z,6508
2017-08-20T12:08:30.557Z,6816
2017-08-20T12:09:30.297Z,6920
2017-08-20T12:12:30.674Z,7012
2017-08-20T12:13:45.287Z,6852
2017-08-20T12:14:30.415Z,6844
2017-08-20T12:15:30.791Z,6832
2017-08-20T12:16:30.797Z,6700
2017-08-20T12:17:45.395Z,6552
2017-08-20T12:18:30.854Z,6532
2017-08-20T12:19:30.846Z,6568
2017-08-20T12:20:30.884Z,6604
2017-08-20T12:21:30.933Z,6716
2017-08-20T12:22:30.928Z,6508
2017-08-20T12:23:30.959Z,6908
2017-08-20T12:24:31.026Z,7392
2017-08-20T12:25:31.035Z,7876
2017-08-20T12:26:30.748Z,7744
2017-08-20T12:27:30.763Z,7588
2017-08-20T12:28:30.800Z,7476
2017-08-20T12:29:45.746Z,7580
2017-08-20T12:30:31.183Z,8012
2017-08-20T12:31:30.874Z,8344
2017-08-20T12:32:31.228Z,8304
2017-08-20T12:33:45.840Z,8636
2017-08-20T12:34:31.276Z,8828
2017-08-20T12:35:30.980Z,9108
2017-08-20T12:36:31.319Z,9336
2017-08-20T12:38:31.369Z,6932
2017-08-20T12:39:31.106Z,8876
2017-08-20T12:40:31.122Z,8864
2017-08-20T12:41:31.462Z,8716
2017-08-20T12:42:31.483Z,8648
2017-08-20T12:43:31.519Z,8248
2017-08-20T12:44:31.557Z,6604
2017-08-20T12:45:45.866Z,8448
2017-08-20T12:46:30.991Z,8536
2017-08-20T12:47:31.627Z,8352
2017-08-20T12:48:31.672Z,8416
2017-08-20T12:49:31.682Z,8488
2017-08-20T12:50:31.707Z,8536
2017-08-20T12:51:30.814Z,8064
2017-08-20T12:52:31.757Z,8256
2017-08-20T12:53:31.486Z,8352
2017-08-20T12:54:31.197Z,8540
2017-08-20T12:55:31.553Z,8728
2017-08-20T12:56:31.569Z,8816
2017-08-20T12:57:31.653Z,9128
2017-08-20T12:58:31.619Z,8784
2017-08-20T12:59:31.942Z,6744
2017-08-20T13:00:31.979Z,6668
2017-08-20T13:01:46.308Z,6848
2017-08-20T13:02:31.742Z,8892
2017-08-20T13:03:31.730Z,8720
2017-08-20T13:04:32.080Z,8028
2017-08-20T13:05:31.810Z,7544
2017-08-20T13:06:32.161Z,7512
2017-08-20T13:07:32.172Z,7588
2017-08-20T13:08:32.214Z,7336
2017-08-20T13:09:32.223Z,7200
2017-08-20T13:10:46.861Z,7964
2017-08-20T13:11:31.654Z,8068
2017-08-20T13:14:32.064Z,9048
2017-08-20T13:15:32.368Z,9052
2017-08-20T13:16:46.707Z,9108
2017-08-20T13:17:32.451Z,9016
2017-08-20T13:18:32.494Z,9048
2017-08-20T13:19:32.217Z,9060
2017-08-20T13:20:32.532Z,8908
2017-08-20T13:21:32.549Z,8640
2017-08-20T13:22:32.575Z,8608
2017-08-20T13:24:32.632Z,8648
2017-08-20T13:25:32.679Z,5836
2017-08-20T13:26:32.702Z,5416
2017-08-20T13:27:47.326Z,5120
2017-08-20T13:29:47.381Z,7712
2017-08-20T13:30:32.824Z,7920
2017-08-20T13:31:32.834Z,6152
2017-08-20T13:32:32.925Z,7804
2017-08-20T13:33:32.903Z,7920
2017-08-20T13:34:32.919Z,7956
2017-08-20T13:35:32.942Z,8012
2017-08-20T13:36:32.660Z,7984
2017-08-20T13:37:33.003Z,7616
2017-08-20T13:38:32.746Z,8172
2017-08-20T13:39:47.654Z,7800
2017-08-20T13:40:33.079Z,7596
2017-08-20T13:41:32.786Z,7276
2017-08-20T13:42:32.844Z,7068
2017-08-20T13:43:33.170Z,5232
2017-08-20T13:44:33.182Z,6876
2017-08-20T13:45:33.204Z,5788
2017-08-20T13:46:33.241Z,6896
2017-08-20T13:47:33.284Z,6812
2017-08-20T13:48:47.893Z,6760
2017-08-20T13:49:33.340Z,6736
2017-08-20T13:50:33.361Z,6812
2017-08-20T13:51:33.390Z,6740
2017-08-20T13:52:33.439Z,4344
2017-08-20T13:53:33.125Z,6912
2017-08-20T13:54:33.159Z,6112
2017-08-20T13:55:33.473Z,6788
2017-08-20T13:56:33.499Z,6860
2017-08-20T13:57:33.270Z,6924
2017-08-20T13:58:33.572Z,6928
2017-08-20T13:59:33.605Z,6968
2017-08-20T14:00:33.612Z,7056
2017-08-20T14:01:33.648Z,6892
2017-08-20T14:02:33.659Z,6368
2017-08-20T14:03:33.715Z,6624
2017-08-20T14:04:48.023Z,6520
2017-08-20T14:05:33.440Z,6504
2017-08-20T14:06:33.462Z,6484
2017-08-20T14:07:33.798Z,6188
2017-08-20T14:08:33.542Z,6488
2017-08-20T14:09:33.562Z,6560
2017-08-20T14:10:33.584Z,6320
2017-08-20T14:11:33.615Z,6604
2017-08-20T14:12:33.625Z,6584
2017-08-20T14:13:48.580Z,6580
2017-08-20T14:14:34.001Z,6596